Time;durP1;ratioP1;P1;durP2;ratioP2;P2;SDS_P1;SDS_P2;PMS_P1;PMS_P2;Temp;Humidity;BMP_temperature;BMP_pressure;BME280_temperature;BME280_humidity;BME280_pressure;Samples;Min_cycle;Max_cycle;Signal;HPM_P1;HPM_P2
2020/12/16 00:00:11;;;;;;;7.35;6.68;;;7.70;99.90;;;;;;2114174;28;20020;-79
2020/12/16 00:01:11;;;;;;;9.15;6.72;;;7.70;99.90;;;;;;2123139;27;20033;-80
2020/12/16 00:02:12;;;;;;;12.63;6.45;;;7.60;99.90;;;;;;2122761;27;20019;-77
2020/12/16 00:03:12;;;;;;;7.93;7.05;;;7.60;99.90;;;;;;2123425;27;20043;-78
2020/12/16 00:04:13;;;;;;;8.30;7.50;;;7.60;99.90;;;;;;2113809;28;20087;-79
2020/12/16 00:05:13;;;;;;;8.18;7.28;;;7.60;99.90;;;;;;2105415;28;20103;-77
2020/12/16 00:06:15;;;;;;;70.65;8.75;;;7.60;99.90;;;;;;2114040;28;20007;-79
2020/12/16 00:07:17;;;;;;;6.25;5.68;;;7.60;99.90;;;;;;2122794;27;20064;-77
2020/12/16 00:08:17;;;;;;;8.82;7.70;;;7.50;99.90;;;;;;2123095;27;20068;-79
2020/12/16 00:09:18;;;;;;;8.07;7.38;;;7.50;99.90;;;;;;2113812;28;20490;-79
2020/12/16 00:10:18;;;;;;;6.85;6.15;;;7.50;99.90;;;;;;2105658;28;20024;-77
2020/12/16 00:11:19;;;;;;;8.43;7.63;;;7.50;99.90;;;;;;2114081;28;20034;-80
2020/12/16 00:12:20;;;;;;;8.23;7.28;;;7.50;99.90;;;;;;2113188;28;20080;-79
2020/12/16 00:13:20;;;;;;;6.05;5.47;;;7.50;99.90;;;;;;2113782;28;20020;-79
2020/12/16 00:14:21;;;;;;;10.57;8.48;;;7.50;99.90;;;;;;2113898;28;20024;-78
2020/12/16 00:15:21;;;;;;;11.90;7.63;;;7.50;99.90;;;;;;2105079;28;20028;-78
2020/12/16 00:16:22;;;;;;;8.20;7.25;;;7.40;99.90;;;;;;2113951;28;20254;-77
2020/12/16 00:17:23;;;;;;;6.63;6.03;;;7.40;99.90;;;;;;2123119;27;20097;-77
2020/12/16 00:18:23;;;;;;;8.68;7.78;;;7.40;99.90;;;;;;2122936;27;20016;-79
2020/12/16 00:19:24;;;;;;;5.30;4.90;;;7.40;99.90;;;;;;2122925;27;20024;-78
2020/12/16 00:20:25;;;;;;;22.83;5.78;;;7.40;99.90;;;;;;2123266;27;20496;-80
2020/12/16 00:21:25;;;;;;;6.47;5.88;;;7.40;99.90;;;;;;2113290;28;20071;-78
2020/12/16 00:22:26;;;;;;;6.00;5.43;;;7.40;99.90;;;;;;2105423;28;20119;-76
2020/12/16 00:23:26;;;;;;;6.80;6.20;;;7.30;99.90;;;;;;2113826;28;20012;-77
2020/12/16 00:24:27;;;;;;;7.68;6.18;;;7.30;99.90;;;;;;2122362;27;20026;-77
2020/12/16 00:25:28;;;;;;;6.43;5.82;;;7.30;99.90;;;;;;2113830;28;20027;-77
2020/12/16 00:26:28;;;;;;;10.63;4.85;;;7.30;99.90;;;;;;2114175;28;20016;-79
2020/12/16 00:27:29;;;;;;;11.90;6.85;;;7.30;99.90;;;;;;2122850;27;20027;-77
2020/12/16 00:28:29;;;;;;;7.15;6.45;;;7.30;99.90;;;;;;2114007;28;20129;-78
2020/12/16 00:29:30;;;;;;;6.55;5.95;;;7.30;99.90;;;;;;2113775;28;20024;-79
2020/12/16 00:30:32;;;;;;;9.25;5.97;;;7.20;99.90;;;;;;2123203;27;20050;-78
2020/12/16 00:31:32;;;;;;;6.90;6.28;;;7.20;99.90;;;;;;2122559;27;20030;-78
2020/12/16 00:32:37;;;;;;;7.22;6.53;;;7.20;99.90;;;;;;2123255;27;20051;-78
2020/12/16 00:33:38;;;;;;;7.78;7.03;;;7.20;99.90;;;;;;2113662;28;20363;-78
2020/12/16 00:34:38;;;;;;;6.53;5.07;;;7.20;99.90;;;;;;2114031;28;20051;-78
2020/12/16 00:35:39;;;;;;;6.20;5.70;;;7.20;99.90;;;;;;2122801;27;20019;-80
2020/12/16 00:36:40;;;;;;;7.13;6.43;;;7.20;99.90;;;;;;2113904;28;20452;-78
2020/12/16 00:37:43;;;;;;;6.07;5.47;;;7.20;99.90;;;;;;2113858;27;20483;-78
2020/12/16 00:38:45;;;;;;;6.13;5.07;;;7.10;99.90;;;;;;2123118;27;20019;-79
2020/12/16 00:39:46;;;;;;;7.60;6.30;;;7.10;99.90;;;;;;2113429;28;20020;-77
2020/12/16 00:40:46;;;;;;;8.00;6.90;;;7.10;99.90;;;;;;2113819;28;20549;-76
2020/12/16 00:41:47;;;;;;;8.88;8.07;;;7.10;99.90;;;;;;2122371;27;20019;-78
2020/12/16 00:42:48;;;;;;;8.55;6.05;;;7.10;99.90;;;;;;2122931;27;20100;-78
2020/12/16 00:43:49;;;;;;;6.30;5.70;;;7.10;99.90;;;;;;2113496;28;20024;-80
2020/12/16 00:44:49;;;;;;;6.75;6.10;;;7.10;99.90;;;;;;2113969;28;20051;-78
2020/12/16 00:45:50;;;;;;;6.97;6.38;;;7.10;99.90;;;;;;2122684;27;20023;-77
2020/12/16 00:46:50;;;;;;;8.45;7.28;;;7.10;99.90;;;;;;2122933;27;20031;-76
2020/12/16 00:47:51;;;;;;;6.45;5.85;;;7.00;99.90;;;;;;2122645;27;20023;-78
2020/12/16 00:48:51;;;;;;;7.50;6.80;;;7.00;99.90;;;;;;2123013;27;20037;-77
2020/12/16 00:49:52;;;;;;;7.47;6.38;;;7.00;99.90;;;;;;2122601;27;20110;-79
2020/12/16 00:50:52;;;;;;;5.93;5.18;;;7.00;99.90;;;;;;2113695;28;20028;-77
2020/12/16 00:51:53;;;;;;;6.95;6.18;;;7.00;99.90;;;;;;2104593;28;20016;-79
2020/12/16 00:52:54;;;;;;;9.30;8.40;;;7.00;99.90;;;;;;2113955;28;20028;-78
2020/12/16 00:53:54;;;;;;;6.28;5.70;;;7.00;99.90;;;;;;2122764;27;20023;-76
2020/12/16 00:54:56;;;;;;;8.10;7.05;;;7.00;99.90;;;;;;2113659;28;20034;-78
2020/12/16 00:55:56;;;;;;;5.80;5.30;;;7.00;99.90;;;;;;2113777;27;20465;-76
2020/12/16 00:56:57;;;;;;;7.68;6.88;;;7.00;99.90;;;;;;2122891;27;20027;-76
2020/12/16 00:57:58;;;;;;;8.55;6.68;;;6.90;99.90;;;;;;2122843;27;20054;-77
2020/12/16 00:58:58;;;;;;;7.10;6.40;;;6.90;99.90;;;;;;2113504;28;20019;-80
2020/12/16 01:00:00;;;;;;;7.78;6.97;;;6.90;99.90;;;;;;2113608;28;20172;-78
2020/12/16 01:01:01;;;;;;;8.07;7.25;;;6.90;99.90;;;;;;2122630;27;20374;-78
2020/12/16 01:02:06;;;;;;;7.32;6.72;;;6.90;99.90;;;;;;2122493;27;20033;-77
2020/12/16 01:03:06;;;;;;;9.30;6.78;;;6.90;99.90;;;;;;2113532;28;20023;-79
2020/12/16 01:04:07;;;;;;;7.13;6.43;;;6.90;99.90;;;;;;2114073;27;20103;-80
2020/12/16 01:05:08;;;;;;;7.55;6.85;;;6.90;99.90;;;;;;2122564;27;20030;-77
2020/12/16 01:06:14;;;;;;;8.93;7.32;;;6.90;99.90;;;;;;2122758;27;20027;-80
2020/12/16 01:07:14;;;;;;;7.43;6.63;;;6.90;99.90;;;;;;2113435;28;20020;-78
2020/12/16 01:08:15;;;;;;;9.00;8.20;;;6.90;99.90;;;;;;2113616;28;20547;-77
2020/12/16 01:09:15;;;;;;;12.18;8.43;;;6.80;99.90;;;;;;2122541;27;20023;-76
2020/12/16 01:10:18;;;;;;;11.48;10.00;;;6.90;99.90;;;;;;2122560;27;20039;-78
2020/12/16 01:11:19;;;;;;;10.52;9.43;;;6.90;99.90;;;;;;2122513;27;20459;-78
2020/12/16 01:12:19;;;;;;;10.98;9.88;;;6.80;99.90;;;;;;2122393;27;20034;-78
2020/12/16 01:13:20;;;;;;;12.40;11.10;;;6.80;99.90;;;;;;2122546;27;20409;-79
2020/12/16 01:14:21;;;;;;;12.57;10.70;;;6.80;99.90;;;;;;2113389;28;20020;-79
2020/12/16 01:15:23;;;;;;;11.45;9.65;;;6.80;99.90;;;;;;2113537;28;20027;-78
2020/12/16 01:16:24;;;;;;;12.85;11.15;;;6.90;99.90;;;;;;2122633;27;20099;-79
2020/12/16 01:17:24;;;;;;;10.80;9.80;;;6.90;99.90;;;;;;2122556;27;20019;-78
2020/12/16 01:18:26;;;;;;;10.98;9.88;;;6.90;99.90;;;;;;2122661;27;20070;-76
2020/12/16 01:19:27;;;;;;;15.27;11.55;;;6.90;99.90;;;;;;2122494;27;20042;-77
2020/12/16 01:20:28;;;;;;;11.82;10.63;;;6.90;99.90;;;;;;2122548;27;20257;-78
2020/12/16 01:21:28;;;;;;;12.10;10.02;;;6.90;99.90;;;;;;2112940;28;20024;-77
2020/12/16 01:22:29;;;;;;;11.98;9.85;;;6.90;99.90;;;;;;2113691;28;20024;-78
2020/12/16 01:23:30;;;;;;;11.32;10.07;;;7.00;99.90;;;;;;2122657;27;20023;-80
2020/12/16 01:24:30;;;;;;;14.70;11.13;;;7.00;99.90;;;;;;2122776;27;20166;-77
2020/12/16 01:25:31;;;;;;;13.63;11.98;;;7.00;99.90;;;;;;2122410;27;20046;-79
2020/12/16 01:26:50;;;;;;;14.35;12.07;;;7.00;99.90;;;;;;2122369;27;20152;-80
2020/12/16 01:27:55;;;;;;;20.92;14.13;;;7.00;99.90;;;;;;2113123;28;20364;-77
2020/12/16 01:28:55;;;;;;;18.40;15.73;;;7.00;99.90;;;;;;2114871;27;20026;-77
2020/12/16 01:29:56;;;;;;;19.38;14.70;;;7.00;99.90;;;;;;2113225;28;20380;-79
2020/12/16 01:30:56;;;;;;;20.25;14.20;;;7.00;99.90;;;;;;2113250;28;20034;-79
2020/12/16 01:31:57;;;;;;;15.93;13.98;;;7.00;99.90;;;;;;2121908;27;20023;-80
2020/12/16 01:32:57;;;;;;;18.02;15.00;;;7.00;99.90;;;;;;2122684;27;20015;-78
2020/12/16 01:33:58;;;;;;;16.13;13.75;;;7.10;99.90;;;;;;2122455;27;20051;-80
2020/12/16 01:35:00;;;;;;;17.27;14.48;;;7.10;99.90;;;;;;2122600;27;20028;-78
2020/12/16 01:36:00;;;;;;;16.05;13.23;;;7.10;99.90;;;;;;2122447;27;20148;-79
2020/12/16 01:37:01;;;;;;;16.77;14.90;;;7.10;99.90;;;;;;2113095;28;20069;-78
2020/12/16 01:38:02;;;;;;;19.25;15.73;;;7.10;99.90;;;;;;2113329;28;20023;-79
2020/12/16 01:39:03;;;;;;;20.10;15.70;;;7.10;99.90;;;;;;2122503;27;20019;-80
2020/12/16 01:40:08;;;;;;;19.05;16.38;;;7.20;99.90;;;;;;2122138;27;20360;-78
2020/12/16 01:41:09;;;;;;;19.48;16.02;;;7.20;99.90;;;;;;2113244;28;20491;-80
2020/12/16 01:42:12;;;;;;;21.63;17.80;;;7.20;99.90;;;;;;2112833;28;20028;-80
2020/12/16 01:43:12;;;;;;;24.58;18.83;;;7.30;99.90;;;;;;2122551;27;20386;-79
2020/12/16 01:44:16;;;;;;;26.90;19.02;;;7.30;99.90;;;;;;2122199;27;20054;-79
2020/12/16 01:45:20;;;;;;;25.85;21.05;;;7.40;99.90;;;;;;2122458;27;20454;-78
2020/12/16 01:46:23;;;;;;;28.83;22.27;;;7.40;99.90;;;;;;2122287;27;20447;-80
2020/12/16 01:47:23;;;;;;;28.20;20.75;;;7.50;99.90;;;;;;2113117;28;20035;-78
2020/12/16 01:48:24;;;;;;;26.98;20.38;;;7.50;99.90;;;;;;2113153;28;20616;-78
2020/12/16 01:49:25;;;;;;;23.60;19.30;;;7.60;99.90;;;;;;2113249;28;20391;-77
2020/12/16 01:50:26;;;;;;;23.48;18.02;;;7.60;99.90;;;;;;2104727;28;20074;-78
2020/12/16 01:51:28;;;;;;;23.35;18.08;;;7.60;99.90;;;;;;2112962;28;20098;-77
2020/12/16 01:52:30;;;;;;;23.48;17.95;;;7.70;99.90;;;;;;2122184;27;20029;-79
2020/12/16 01:53:32;;;;;;;22.67;17.15;;;7.70;99.90;;;;;;2122135;27;20103;-78
2020/12/16 01:54:35;;;;;;;21.60;17.60;;;7.70;99.90;;;;;;2121608;27;20055;-80
2020/12/16 01:55:36;;;;;;;23.60;18.08;;;7.70;99.90;;;;;;2122211;27;20493;-79
2020/12/16 01:56:41;;;;;;;22.13;17.90;;;7.70;99.90;;;;;;2112809;28;20051;-79
2020/12/16 01:57:49;;;;;;;20.30;16.98;;;7.70;99.90;;;;;;2113719;28;20051;-81
2020/12/16 01:58:51;;;;;;;23.55;17.85;;;7.80;99.90;;;;;;2112944;28;20024;-78
2020/12/16 01:59:52;;;;;;;22.92;18.52;;;7.80;99.90;;;;;;2113230;27;20715;-80
2020/12/16 02:00:54;;;;;;;23.17;18.00;;;7.80;99.90;;;;;;2122204;27;20027;-79
2020/12/16 02:01:55;;;;;;;22.85;17.90;;;7.80;99.90;;;;;;2121828;27;20023;-78
2020/12/16 02:02:57;;;;;;;22.17;17.90;;;7.90;99.90;;;;;;2122219;27;20364;-77
2020/12/16 02:03:59;;;;;;;20.20;18.00;;;7.90;99.90;;;;;;2113164;28;20019;-79
2020/12/16 02:05:02;;;;;;;22.30;19.23;;;7.90;99.90;;;;;;2104898;28;20582;-78
2020/12/16 02:06:06;;;;;;;24.42;18.75;;;7.90;99.90;;;;;;2113726;27;20104;-79
2020/12/16 02:07:09;;;;;;;20.17;17.75;;;7.90;99.90;;;;;;2121998;27;20035;-80
2020/12/16 02:08:11;;;;;;;26.02;19.00;;;8.00;99.90;;;;;;2113176;28;20023;-77
2020/12/16 02:09:12;;;;;;;20.63;17.83;;;8.00;99.90;;;;;;2113292;28;20528;-77
2020/12/16 02:10:13;;;;;;;20.05;17.80;;;8.00;99.90;;;;;;2112867;28;20132;-78
2020/12/16 02:11:14;;;;;;;24.73;18.65;;;8.00;99.90;;;;;;2113062;28;20167;-76
2020/12/16 02:12:20;;;;;;;23.33;17.98;;;8.00;99.90;;;;;;2112771;28;20085;-79
2020/12/16 02:13:20;;;;;;;24.58;19.17;;;8.00;99.90;;;;;;2113099;28;20149;-76
2020/12/16 02:14:21;;;;;;;22.90;18.85;;;8.10;99.90;;;;;;2113151;28;20031;-77
2020/12/16 02:15:21;;;;;;;21.10;17.13;;;8.10;99.90;;;;;;2121992;27;20038;-80
2020/12/16 02:16:22;;;;;;;26.35;17.10;;;8.10;99.90;;;;;;2112991;28;20024;-79
2020/12/16 02:17:23;;;;;;;21.73;16.23;;;8.10;99.90;;;;;;2112779;28;20132;-79
2020/12/16 02:18:23;;;;;;;20.65;16.33;;;8.10;99.90;;;;;;2112934;28;20465;-78
2020/12/16 02:19:26;;;;;;;18.20;16.25;;;8.10;99.90;;;;;;2121962;27;20027;-79
2020/12/16 02:20:27;;;;;;;22.00;17.83;;;8.10;99.90;;;;;;2121989;27;20485;-77
2020/12/16 02:21:28;;;;;;;23.58;17.08;;;8.10;99.90;;;;;;2112453;28;20020;-79
2020/12/16 02:22:29;;;;;;;21.27;17.52;;;8.10;99.90;;;;;;2112957;28;20098;-78
2020/12/16 02:23:32;;;;;;;23.67;18.42;;;8.10;99.90;;;;;;2113071;28;20023;-77
2020/12/16 02:24:33;;;;;;;20.67;17.15;;;8.10;99.90;;;;;;2113428;28;20024;-80
2020/12/16 02:25:33;;;;;;;19.42;16.60;;;8.10;99.90;;;;;;2113022;28;20031;-80
2020/12/16 02:26:39;;;;;;;21.92;17.48;;;8.10;99.90;;;;;;2104570;28;20039;-78
2020/12/16 02:27:41;;;;;;;18.90;15.88;;;8.10;99.90;;;;;;2113693;27;20050;-79
2020/12/16 02:28:42;;;;;;;19.88;17.70;;;8.20;99.90;;;;;;2122040;27;20019;-76
2020/12/16 02:29:42;;;;;;;20.20;17.20;;;8.10;99.90;;;;;;2112933;28;20106;-77
2020/12/16 02:30:43;;;;;;;23.08;17.48;;;8.10;99.90;;;;;;2112976;28;20016;-77
2020/12/16 02:31:45;;;;;;;22.88;17.55;;;8.20;99.90;;;;;;2121599;27;20531;-79
2020/12/16 02:32:45;;;;;;;22.00;18.08;;;8.20;99.90;;;;;;2112797;28;20019;-79
2020/12/16 02:33:46;;;;;;;24.80;19.45;;;8.20;99.90;;;;;;2113018;28;20015;-81
2020/12/16 02:34:46;;;;;;;23.50;17.85;;;8.20;99.90;;;;;;2112811;28;20019;-77
2020/12/16 02:35:47;;;;;;;22.58;17.80;;;8.20;99.90;;;;;;2113162;28;20085;-80
2020/12/16 02:36:47;;;;;;;21.00;17.80;;;8.20;99.90;;;;;;2121920;27;20051;-77
2020/12/16 02:37:48;;;;;;;27.40;17.67;;;8.20;99.90;;;;;;2121815;27;20024;-80
2020/12/16 02:38:49;;;;;;;24.42;18.40;;;8.20;99.90;;;;;;2121955;27;20030;-76
2020/12/16 02:39:50;;;;;;;20.02;17.08;;;8.20;99.90;;;;;;2121648;27;20533;-78
2020/12/16 02:40:51;;;;;;;21.83;17.88;;;8.20;99.90;;;;;;2122043;27;20074;-77
2020/12/16 02:42:04;;;;;;;20.75;18.00;;;8.20;99.90;;;;;;2121749;27;20027;-78
2020/12/16 02:43:05;;;;;;;22.63;18.55;;;8.20;99.90;;;;;;2112752;28;20024;-82
2020/12/16 02:44:05;;;;;;;22.10;17.92;;;8.20;99.90;;;;;;2104375;28;20440;-77
2020/12/16 02:45:06;;;;;;;21.58;17.88;;;8.20;99.90;;;;;;2112971;28;20020;-78
2020/12/16 02:46:07;;;;;;;21.83;17.70;;;8.10;99.90;;;;;;2112838;28;20020;-77
2020/12/16 02:47:08;;;;;;;20.70;18.05;;;8.20;99.90;;;;;;2113037;28;20027;-79
2020/12/16 02:48:08;;;;;;;19.98;16.95;;;8.20;99.90;;;;;;2118820;28;20401;-78
2020/12/16 02:49:09;;;;;;;20.02;17.38;;;8.10;99.90;;;;;;2112630;28;20023;-79
2020/12/16 02:50:10;;;;;;;20.20;17.98;;;8.20;99.90;;;;;;2112511;28;20133;-78
2020/12/16 02:51:10;;;;;;;31.60;18.00;;;8.20;99.90;;;;;;2112708;28;20043;-81
2020/12/16 02:52:11;;;;;;;20.25;17.92;;;8.20;99.90;;;;;;2112471;28;20024;-78
2020/12/16 02:53:12;;;;;;;25.27;19.40;;;8.10;99.90;;;;;;2112975;28;20372;-79
2020/12/16 02:54:13;;;;;;;20.30;17.60;;;8.20;99.90;;;;;;2121969;28;20030;-78
2020/12/16 02:55:13;;;;;;;21.83;17.10;;;8.20;99.90;;;;;;2121990;28;20031;-77
2020/12/16 02:56:14;;;;;;;21.13;18.70;;;8.20;99.90;;;;;;2121670;28;20038;-78
2020/12/16 02:57:14;;;;;;;20.45;17.58;;;8.20;99.90;;;;;;2121755;28;20023;-79
2020/12/16 02:58:15;;;;;;;20.30;18.20;;;8.20;99.90;;;;;;2121989;28;20046;-79
2020/12/16 02:59:18;;;;;;;21.05;16.70;;;8.20;99.90;;;;;;2112769;28;20024;-80
2020/12/16 03:00:18;;;;;;;20.40;15.70;;;8.20;99.90;;;;;;2104497;28;20330;-78
2020/12/16 03:01:19;;;;;;;20.02;14.85;;;8.20;99.90;;;;;;2113167;28;20145;-79
2020/12/16 03:02:20;;;;;;;21.35;15.82;;;8.20;99.90;;;;;;2121473;28;20023;-79
2020/12/16 03:03:20;;;;;;;22.75;15.45;;;8.20;99.90;;;;;;2121835;28;20023;-79
2020/12/16 03:04:22;;;;;;;19.55;15.48;;;8.20;99.90;;;;;;2121951;28;20039;-77
2020/12/16 03:05:23;;;;;;;26.38;15.77;;;8.20;99.90;;;;;;2121994;28;20026;-78
2020/12/16 03:06:23;;;;;;;19.85;15.65;;;8.10;99.90;;;;;;2112628;28;20058;-77
2020/12/16 03:07:24;;;;;;;20.40;15.57;;;8.10;99.90;;;;;;2112667;28;20036;-78
2020/12/16 03:08:24;;;;;;;18.80;16.27;;;8.10;99.90;;;;;;2121672;28;20576;-80
2020/12/16 03:09:26;;;;;;;20.63;17.02;;;8.10;99.90;;;;;;2112305;28;20027;-77
2020/12/16 03:10:28;;;;;;;20.95;16.15;;;8.10;99.90;;;;;;2112635;28;20353;-77
2020/12/16 03:11:28;;;;;;;22.70;18.27;;;8.10;99.90;;;;;;2121201;28;20042;-80
2020/12/16 03:12:29;;;;;;;20.17;17.65;;;8.10;99.90;;;;;;2121817;28;20023;-80
2020/12/16 03:13:29;;;;;;;27.13;18.50;;;8.10;99.90;;;;;;2121838;28;20066;-78
2020/12/16 03:14:30;;;;;;;20.00;17.40;;;8.10;99.90;;;;;;2112669;28;20034;-77
2020/12/16 03:15:31;;;;;;;21.33;18.35;;;8.10;99.90;;;;;;2112705;28;20068;-80
2020/12/16 03:16:32;;;;;;;21.35;18.38;;;8.10;99.90;;;;;;2121738;28;20022;-79
2020/12/16 03:17:33;;;;;;;21.45;18.50;;;8.10;99.90;;;;;;2121699;28;20023;-80
2020/12/16 03:18:33;;;;;;;23.73;19.75;;;8.00;99.90;;;;;;2121803;28;20061;-78
2020/12/16 03:19:34;;;;;;;23.08;20.02;;;8.00;99.90;;;;;;2121930;28;20102;-78
2020/12/16 03:20:35;;;;;;;23.35;18.90;;;8.10;99.90;;;;;;2121635;28;20487;-79
2020/12/16 03:21:35;;;;;;;25.58;19.08;;;8.10;99.90;;;;;;2112340;28;20608;-79
2020/12/16 03:22:36;;;;;;;22.73;19.70;;;8.10;99.90;;;;;;2112861;28;20023;-79
2020/12/16 03:23:36;;;;;;;23.00;18.70;;;8.10;99.90;;;;;;2112469;28;20111;-78
2020/12/16 03:24:37;;;;;;;24.55;19.30;;;8.10;99.90;;;;;;2112826;28;20103;-79
2020/12/16 03:25:37;;;;;;;23.42;18.08;;;8.00;99.90;;;;;;2121858;28;20023;-79
2020/12/16 03:26:41;;;;;;;24.17;19.35;;;8.10;99.90;;;;;;2122051;28;20265;-77
2020/12/16 03:27:42;;;;;;;24.38;19.33;;;8.10;99.90;;;;;;2121408;28;20023;-79
2020/12/16 03:28:43;;;;;;;23.48;19.17;;;8.10;99.90;;;;;;2121720;28;20022;-79
2020/12/16 03:29:43;;;;;;;24.55;19.35;;;8.10;99.90;;;;;;2112555;28;20029;-80
2020/12/16 03:30:44;;;;;;;21.73;18.85;;;8.10;99.90;;;;;;2112615;28;20443;-78
2020/12/16 03:31:44;;;;;;;21.70;18.13;;;8.10;99.90;;;;;;2121201;28;20019;-79
2020/12/16 03:32:45;;;;;;;22.67;18.65;;;8.10;99.90;;;;;;2121943;28;20027;-77
2020/12/16 03:33:46;;;;;;;21.73;17.33;;;8.10;99.90;;;;;;2112375;28;20028;-77
2020/12/16 03:34:47;;;;;;;21.02;18.35;;;8.10;99.90;;;;;;2112863;28;20111;-78
2020/12/16 03:35:47;;;;;;;23.30;17.80;;;8.10;99.90;;;;;;2121685;28;20019;-77
2020/12/16 03:36:48;;;;;;;21.67;17.52;;;8.10;99.90;;;;;;2112551;28;20047;-78
2020/12/16 03:37:48;;;;;;;21.77;17.90;;;8.10;99.90;;;;;;2112444;28;20020;-78
2020/12/16 03:38:49;;;;;;;20.20;17.75;;;8.10;99.90;;;;;;2121784;28;20029;-81
2020/12/16 03:39:50;;;;;;;22.25;17.15;;;8.10;99.90;;;;;;2121371;28;20035;-78
2020/12/16 03:40:51;;;;;;;23.35;17.80;;;8.10;99.90;;;;;;2121512;28;20344;-77
2020/12/16 03:41:51;;;;;;;21.95;18.05;;;8.00;99.90;;;;;;2121337;28;20024;-77
2020/12/16 03:42:52;;;;;;;22.10;18.42;;;8.10;99.90;;;;;;2121639;28;20432;-78
2020/12/16 03:43:53;;;;;;;20.73;17.38;;;8.10;99.90;;;;;;2104024;28;20508;-79
2020/12/16 03:44:54;;;;;;;24.25;19.33;;;8.10;99.90;;;;;;2104339;28;20020;-79
2020/12/16 03:45:54;;;;;;;21.20;18.05;;;8.10;99.90;;;;;;2121746;28;20024;-78
2020/12/16 03:46:55;;;;;;;22.80;18.42;;;8.10;99.90;;;;;;2121553;28;20050;-78
2020/12/16 03:47:55;;;;;;;21.02;17.55;;;8.10;99.90;;;;;;2121601;28;20031;-79
2020/12/16 03:48:56;;;;;;;22.10;16.83;;;8.10;99.90;;;;;;2121540;28;20027;-80
2020/12/16 03:49:57;;;;;;;21.33;17.15;;;8.10;99.90;;;;;;2112433;28;20028;-80
2020/12/16 03:50:57;;;;;;;21.48;16.65;;;8.10;99.90;;;;;;2114167;28;20069;-78
2020/12/16 03:51:58;;;;;;;19.70;16.35;;;8.10;99.90;;;;;;2113667;28;20830;-78
2020/12/16 03:52:58;;;;;;;21.92;17.58;;;8.10;99.90;;;;;;2114388;28;20379;-77
2020/12/16 03:53:59;;;;;;;22.38;17.27;;;8.10;99.90;;;;;;2123439;27;20023;-78
2020/12/16 03:54:59;;;;;;;22.13;18.48;;;8.10;99.90;;;;;;2113938;28;20508;-79
2020/12/16 03:56:15;;;;;;;22.90;18.30;;;8.10;99.90;;;;;;2114157;28;20110;-79
2020/12/16 03:57:16;;;;;;;24.25;19.30;;;8.10;99.90;;;;;;2123039;27;20471;-80
2020/12/16 03:58:16;;;;;;;22.30;18.73;;;8.00;99.90;;;;;;2123327;27;20031;-79
2020/12/16 03:59:17;;;;;;;26.75;18.63;;;8.00;99.90;;;;;;2123123;27;20032;-81
2020/12/16 04:00:17;;;;;;;23.10;18.00;;;8.00;99.90;;;;;;2123267;27;20027;-79
2020/12/16 04:01:20;;;;;;;23.55;18.48;;;8.00;99.90;;;;;;2122942;27;20022;-78
2020/12/16 04:02:20;;;;;;;22.10;17.67;;;8.00;99.90;;;;;;2122647;27;20102;-77
2020/12/16 04:03:21;;;;;;;23.75;18.10;;;8.00;99.90;;;;;;2123185;27;20019;-79
2020/12/16 04:04:21;;;;;;;22.58;18.35;;;8.00;99.90;;;;;;2123334;27;20080;-81
2020/12/16 04:05:22;;;;;;;22.98;18.88;;;8.00;99.90;;;;;;2123081;27;20059;-78
2020/12/16 04:06:22;;;;;;;22.90;18.10;;;8.00;99.90;;;;;;2114067;28;20047;-77
2020/12/16 04:07:23;;;;;;;22.92;19.02;;;8.10;99.90;;;;;;2105486;28;20540;-77
2020/12/16 04:08:24;;;;;;;24.48;18.17;;;8.10;99.90;;;;;;2113900;28;20032;-79
2020/12/16 04:09:27;;;;;;;25.23;20.13;;;8.10;99.90;;;;;;2123008;27;20080;-78
2020/12/16 04:10:28;;;;;;;23.42;19.42;;;8.10;99.90;;;;;;2123243;27;20027;-78
2020/12/16 04:11:28;;;;;;;23.00;19.38;;;8.10;99.90;;;;;;2122658;27;20031;-78
2020/12/16 04:12:29;;;;;;;22.55;18.00;;;8.00;99.90;;;;;;2123119;27;20229;-78
2020/12/16 04:13:29;;;;;;;25.20;19.63;;;8.10;99.90;;;;;;2123280;27;20027;-80
2020/12/16 04:14:30;;;;;;;24.00;20.02;;;8.10;99.90;;;;;;2123080;27;20586;-78
2020/12/16 04:15:31;;;;;;;26.05;20.42;;;8.10;99.90;;;;;;2123184;27;20024;-78
2020/12/16 04:16:31;;;;;;;22.98;18.85;;;8.10;99.90;;;;;;2122854;27;20301;-78
2020/12/16 04:17:33;;;;;;;22.33;18.55;;;8.10;99.90;;;;;;2122804;27;20062;-81
2020/12/16 04:18:34;;;;;;;21.02;18.75;;;8.10;99.90;;;;;;2113807;28;20394;-78
2020/12/16 04:19:34;;;;;;;21.88;18.17;;;8.10;99.90;;;;;;2113871;28;20016;-79
2020/12/16 04:20:35;;;;;;;22.48;18.48;;;8.10;99.90;;;;;;2123032;27;20031;-78
2020/12/16 04:21:35;;;;;;;27.75;19.00;;;8.10;99.90;;;;;;2122703;27;20027;-78
2020/12/16 04:22:36;;;;;;;22.58;19.00;;;8.10;99.90;;;;;;2105569;28;20475;-79
2020/12/16 04:23:38;;;;;;;24.38;19.30;;;8.10;99.90;;;;;;2097010;28;20024;-79
2020/12/16 04:24:38;;;;;;;22.70;18.73;;;8.10;99.90;;;;;;2114270;27;20043;-79
2020/12/16 04:25:39;;;;;;;24.08;18.10;;;8.10;99.90;;;;;;2114157;28;20023;-78
2020/12/16 04:26:39;;;;;;;25.27;19.40;;;8.10;99.90;;;;;;2113946;28;20024;-79
2020/12/16 04:27:40;;;;;;;22.38;18.20;;;8.10;99.90;;;;;;2122984;27;20064;-78
2020/12/16 04:28:40;;;;;;;23.55;18.48;;;8.10;99.90;;;;;;2122943;27;20024;-78
2020/12/16 04:29:41;;;;;;;24.42;19.75;;;8.10;99.90;;;;;;2122838;27;20019;-79
2020/12/16 04:30:42;;;;;;;22.00;18.60;;;8.10;99.90;;;;;;2113676;28;20030;-77
2020/12/16 04:31:42;;;;;;;22.20;17.38;;;8.10;99.90;;;;;;2104931;28;20028;-80
2020/12/16 04:32:43;;;;;;;21.77;17.90;;;8.10;99.90;;;;;;2113805;28;20047;-80
2020/12/16 04:33:44;;;;;;;22.63;17.80;;;8.20;99.90;;;;;;2113898;28;20024;-80
2020/12/16 04:34:45;;;;;;;21.70;18.45;;;8.20;99.90;;;;;;2113585;28;20026;-80
2020/12/16 04:35:46;;;;;;;27.02;19.52;;;8.10;99.90;;;;;;2113836;28;20478;-78
2020/12/16 04:36:48;;;;;;;23.02;18.55;;;8.10;99.90;;;;;;2113592;28;20023;-81
2020/12/16 04:37:48;;;;;;;26.10;20.08;;;8.20;99.90;;;;;;2113914;27;20123;-80
2020/12/16 04:38:49;;;;;;;24.52;20.08;;;8.20;99.90;;;;;;2113544;28;20486;-80
2020/12/16 04:39:49;;;;;;;20.25;18.08;;;8.20;99.90;;;;;;2113642;28;20614;-78
2020/12/16 04:40:50;;;;;;;21.67;18.02;;;8.20;99.90;;;;;;2123021;27;20073;-80
2020/12/16 04:41:51;;;;;;;24.80;17.80;;;8.10;99.90;;;;;;2113300;28;20020;-77
2020/12/16 04:43:07;;;;;;;20.70;17.25;;;8.10;99.90;;;;;;2113770;28;20024;-78
2020/12/16 04:44:11;;;;;;;19.55;16.48;;;8.10;99.90;;;;;;2122991;27;20046;-79
2020/12/16 04:45:11;;;;;;;21.42;18.13;;;8.10;99.90;;;;;;2122889;27;20102;-80
2020/12/16 04:46:15;;;;;;;20.20;17.40;;;8.10;99.90;;;;;;2122673;27;20023;-77
2020/12/16 04:47:16;;;;;;;20.80;17.10;;;8.10;99.90;;;;;;2121936;27;20448;-79
2020/12/16 04:48:17;;;;;;;21.33;17.10;;;8.10;99.90;;;;;;2121960;27;20383;-78
2020/12/16 04:49:18;;;;;;;24.08;18.17;;;8.10;99.90;;;;;;2122750;27;20062;-79
2020/12/16 04:50:19;;;;;;;23.30;18.30;;;8.10;99.90;;;;;;2122850;27;20019;-78
2020/12/16 04:51:19;;;;;;;20.98;16.83;;;8.10;99.90;;;;;;2122671;27;20410;-80
2020/12/16 04:52:22;;;;;;;19.95;16.60;;;8.10;99.90;;;;;;2122510;27;20134;-78
2020/12/16 04:53:24;;;;;;;23.63;17.77;;;8.10;99.90;;;;;;2113781;28;20075;-79
2020/12/16 04:54:24;;;;;;;19.48;17.33;;;8.10;99.90;;;;;;2113924;27;20217;-77
2020/12/16 04:55:25;;;;;;;22.00;18.02;;;8.10;99.90;;;;;;2122731;27;20027;-78
2020/12/16 04:56:27;;;;;;;23.08;17.98;;;8.10;99.90;;;;;;2122727;27;20027;-80
2020/12/16 04:57:27;;;;;;;21.38;17.95;;;8.10;99.90;;;;;;2122703;27;20047;-79
2020/12/16 04:58:28;;;;;;;19.27;15.85;;;8.10;99.90;;;;;;2122507;27;20424;-78
2020/12/16 04:59:28;;;;;;;22.33;17.27;;;8.10;99.90;;;;;;2122750;27;20027;-79
2020/12/16 05:00:31;;;;;;;22.55;17.73;;;8.10;99.90;;;;;;2122811;27;20159;-80
2020/12/16 05:01:38;;;;;;;23.38;17.15;;;8.10;99.90;;;;;;2121127;27;20027;-79
2020/12/16 05:02:39;;;;;;;20.85;17.10;;;8.00;99.90;;;;;;2122260;27;20031;-80
2020/12/16 05:03:41;;;;;;;21.90;16.55;;;8.00;99.90;;;;;;2122756;27;20027;-79
2020/12/16 05:04:42;;;;;;;20.25;17.08;;;8.00;99.90;;;;;;2122761;27;20039;-78
2020/12/16 05:05:43;;;;;;;22.13;18.25;;;8.00;99.90;;;;;;2122610;27;20106;-78
2020/12/16 05:06:46;;;;;;;22.60;17.90;;;8.00;99.90;;;;;;2122853;27;20027;-77
2020/12/16 05:07:50;;;;;;;19.45;16.20;;;8.00;99.90;;;;;;2122409;27;20389;-81
2020/12/16 05:09:14;;;;;;;23.05;18.00;;;8.00;99.90;;;;;;2122659;27;20023;-79
2020/12/16 05:10:40;;;;;;;21.92;15.98;;;8.00;99.90;;;;;;2113366;28;20451;-81
2020/12/16 05:11:49;;;;;;;22.52;18.55;;;7.90;99.90;;;;;;2117706;27;20416;-78
2020/12/16 05:13:04;;;;;;;19.33;15.90;;;7.90;99.90;;;;;;2122635;27;20382;-78
2020/12/16 05:14:14;;;;;;;20.95;16.83;;;7.90;99.90;;;;;;2113612;28;20145;-80
2020/12/16 05:15:22;;;;;;;;;;;7.90;99.90;;;;;;2106851;28;20024;-79
2020/12/16 05:16:22;;;;;;;20.85;15.52;;;7.80;99.90;;;;;;2105674;28;20002;-79
2020/12/16 05:17:23;;;;;;;21.17;16.90;;;7.80;99.90;;;;;;2113309;28;20522;-78